Time;durP1;ratioP1;P1;durP2;ratioP2;P2;SDS_P1;SDS_P2;PMS_P1;PMS_P2;Temp;Humidity;BMP_temperature;BMP_pressure;BME280_temperature;BME280_humidity;BME280_pressure;Samples;Min_cycle;Max_cycle;Signal;HPM_P1;HPM_P2
2023/03/23 00:01:05;;;;;;;27.17;16.35;;;;;;;10.05;61.73;98036.09;4974512;28;20033;-72
2023/03/23 00:03:31;;;;;;;23.15;15.40;;;;;;;10.05;61.94;98036.09;4974476;28;20026;-72
2023/03/23 00:06:07;;;;;;;28.33;17.02;;;;;;;10.03;61.98;98037.53;4974718;28;20037;-72
2023/03/23 00:08:44;;;;;;;33.13;17.70;;;;;;;10.01;62.06;98034.28;4974062;28;20447;-72
2023/03/23 00:11:16;;;;;;;60.55;25.35;;;;;;;10.00;61.87;98032.66;4972457;28;20027;-72
2023/03/23 00:13:42;;;;;;;56.50;24.77;;;;;;;9.97;62.65;98034.88;4974022;28;20019;-72
2023/03/23 00:16:16;;;;;;;45.58;21.08;;;;;;;9.95;62.96;98025.34;4973662;28;20027;-72
2023/03/23 00:18:44;;;;;;;35.60;19.55;;;;;;;9.93;62.67;98030.31;4973438;28;20034;-72
2023/03/23 00:21:09;;;;;;;30.23;18.30;;;;;;;9.90;62.73;98031.72;4972755;28;20023;-72
2023/03/23 00:23:35;;;;;;;26.20;17.85;;;;;;;9.89;62.52;98018.34;4973528;28;20133;-72
2023/03/23 00:26:00;;;;;;;25.48;16.02;;;;;;;9.87;62.71;98017.81;4974296;28;20038;-72
2023/03/23 00:28:26;;;;;;;24.23;14.95;;;;;;;9.87;62.98;98015.88;4974724;28;20033;-72
2023/03/23 00:31:00;;;;;;;25.17;14.82;;;;;;;9.85;63.13;98018.13;4973512;28;20029;-72
2023/03/23 00:33:37;;;;;;;24.08;14.20;;;;;;;9.86;63.06;98011.53;4973576;28;20027;-72
2023/03/23 00:36:04;;;;;;;20.15;13.65;;;;;;;9.89;63.22;98010.13;4972944;28;20023;-72
2023/03/23 00:38:30;;;;;;;24.77;13.95;;;;;;;9.91;63.69;98011.44;4972825;28;20022;-72
2023/03/23 00:40:57;;;;;;;24.70;14.60;;;;;;;9.94;63.21;98010.81;4973261;28;20022;-72
2023/03/23 00:43:24;;;;;;;25.15;14.75;;;;;;;9.95;63.60;98008.91;4973337;28;20027;-71
2023/03/23 00:45:52;;;;;;;29.30;18.98;;;;;;;9.96;62.64;98010.53;4974043;28;20027;-71
2023/03/23 00:48:28;;;;;;;47.30;26.00;;;;;;;9.96;63.04;98008.59;4973408;28;20086;-72
2023/03/23 00:50:53;;;;;;;25.45;15.23;;;;;;;9.96;63.88;98008.59;4986893;28;20365;-71
2023/03/23 00:53:19;;;;;;;21.48;13.38;;;;;;;9.96;63.04;98010.53;4973976;28;20038;-72
2023/03/23 00:55:46;;;;;;;31.27;16.10;;;;;;;9.95;63.24;98004.22;4973043;28;20027;-72
2023/03/23 00:58:12;;;;;;;25.30;14.45;;;;;;;9.96;63.86;98005.06;4973134;28;20046;-72
2023/03/23 01:00:38;;;;;;;30.98;15.68;;;;;;;9.97;63.14;98001.19;4973290;28;20022;-72
2023/03/23 01:03:04;;;;;;;28.67;15.20;;;;;;;9.95;63.27;97998.75;4972712;28;20108;-72
2023/03/23 01:05:35;;;;;;;23.08;13.15;;;;;;;9.97;64.11;97990.25;4972535;28;20066;-72
2023/03/23 01:08:01;;;;;;;23.75;14.98;;;;;;;9.96;63.22;97992.16;4973061;28;20030;-72
2023/03/23 01:10:27;;;;;;;25.08;14.65;;;;;;;9.95;63.53;97995.22;4972882;28;20038;-71
2023/03/23 01:12:52;;;;;;;23.48;14.00;;;;;;;9.94;63.06;97988.13;4972603;28;20555;-71
2023/03/23 01:15:21;;;;;;;25.45;15.15;;;;;;;9.94;63.17;97994.38;4971937;28;20022;-73
2023/03/23 01:17:47;;;;;;;25.95;14.45;;;;;;;9.92;63.40;97991.13;4972405;28;20033;-72
2023/03/23 01:20:14;;;;;;;26.15;15.07;;;;;;;9.93;63.57;97997.44;4972403;28;20141;-73
2023/03/23 01:22:41;;;;;;;21.63;14.10;;;;;;;9.93;63.77;97998.25;4972340;28;20035;-73
2023/03/23 01:25:09;;;;;;;20.95;14.07;;;;;;;9.92;63.38;97990.34;4971167;28;20050;-71
2023/03/23 01:27:34;;;;;;;23.35;14.70;;;;;;;9.92;63.79;97998.56;4971838;28;20515;-71
2023/03/23 01:30:00;;;;;;;25.70;14.20;;;;;;;9.91;63.09;97996.94;4972567;28;20054;-70
2023/03/23 01:32:25;;;;;;;24.38;14.25;;;;;;;9.92;63.25;97998.56;4971916;28;20113;-72
2023/03/23 01:34:51;;;;;;;22.58;13.93;;;;;;;9.93;63.79;97994.72;4972389;28;20027;-71
2023/03/23 01:37:16;;;;;;;21.23;13.65;;;;;;;9.92;63.14;97995.81;4972724;28;20034;-71
2023/03/23 01:39:42;;;;;;;21.73;13.30;;;;;;;9.93;63.97;97984.53;4971705;28;20567;-71
2023/03/23 01:42:10;;;;;;;21.30;13.02;;;;;;;9.94;63.41;97991.66;4971920;28;20030;-71
2023/03/23 01:44:35;;;;;;;20.13;12.65;;;;;;;9.96;63.17;97986.69;4971923;28;20507;-71
2023/03/23 01:47:01;;;;;;;19.25;11.77;;;;;;;9.99;63.95;97988.00;4970581;28;20027;-71
2023/03/23 01:49:39;;;;;;;18.00;11.77;;;;;;;10.01;63.64;97983.00;4970937;28;20037;-71
2023/03/23 01:52:17;;;;;;;15.85;9.95;;;;;;;10.05;63.99;97986.78;4969384;28;20027;-71
2023/03/23 01:54:44;;;;;;;15.73;9.98;;;;;;;10.09;63.72;97984.25;4970847;28;21996;-71
2023/03/23 01:57:14;;;;;;;17.58;9.90;;;;;;;10.11;63.56;97977.34;4971462;28;20035;-71
2023/03/23 01:59:42;;;;;;;;;;;;;;;10.13;63.35;97975.09;4970271;28;20034;-70
2023/03/23 02:02:10;;;;;;;19.38;11.90;;;;;;;10.13;63.64;97966.88;4970499;28;19922;-71
2023/03/23 02:04:36;;;;;;;18.88;11.45;;;;;;;10.13;63.45;97977.84;4969122;28;20109;-71
2023/03/23 02:07:03;;;;;;;17.63;10.98;;;;;;;10.12;63.21;97973.47;4971250;28;20472;-70
2023/03/23 02:09:28;;;;;;;17.17;10.70;;;;;;;10.12;63.67;97970.75;4971105;28;20113;-71
2023/03/23 02:11:54;;;;;;;16.70;9.63;;;;;;;10.12;63.57;97972.69;4971546;28;20468;-71
2023/03/23 02:14:21;;;;;;;15.27;9.88;;;;;;;10.12;63.52;97968.00;4971558;28;20031;-71
2023/03/23 02:16:49;;;;;;;12.93;9.25;;;;;;;10.14;63.67;97964.97;4971401;28;20066;-70
2023/03/23 02:19:23;;;;;;;17.77;9.90;;;;;;;10.16;63.28;97956.44;4970733;28;20535;-71
2023/03/23 02:22:22;;;;;;;15.95;10.00;;;;;;;10.17;63.21;97961.63;4971015;28;20033;-72
2023/03/23 02:25:23;;;;;;;14.55;9.25;;;;;;;10.18;62.67;97959.69;4970169;28;20031;-71
2023/03/23 02:28:07;;;;;;;17.95;10.32;;;;;;;10.16;63.12;97957.25;4916722;29;20083;-71
2023/03/23 02:31:01;;;;;;;16.73;11.60;;;;;;;10.15;62.99;97954.81;4964879;28;20057;-72
2023/03/23 02:33:50;;;;;;;21.70;12.80;;;;;;;10.13;63.33;97955.94;4969861;28;20042;-71
2023/03/23 02:36:15;;;;;;;18.92;12.52;;;;;;;10.15;63.18;97946.59;4970584;28;20443;-71
2023/03/23 02:39:11;;;;;;;23.13;12.38;;;;;;;10.08;62.89;97960.72;4971056;28;20035;-71
2023/03/23 02:41:50;;;;;;;19.10;12.15;;;;;;;10.07;63.09;97951.66;4968708;28;20487;-71
2023/03/23 02:44:16;;;;;;;18.77;12.63;;;;;;;10.06;63.39;97950.03;4970558;28;20027;-71
2023/03/23 02:46:44;;;;;;;20.45;12.48;;;;;;;10.05;63.35;97942.94;4971352;28;20027;-71
2023/03/23 02:49:14;;;;;;;16.98;11.50;;;;;;;10.05;63.47;97945.69;4970913;28;20030;-71
2023/03/23 02:51:41;;;;;;;18.27;11.77;;;;;;;10.06;63.84;97954.72;4968977;28;20050;-71
2023/03/23 02:54:08;;;;;;;19.60;12.02;;;;;;;10.06;63.20;97947.31;4971243;28;20100;-71
2023/03/23 02:56:35;;;;;;;20.17;12.07;;;;;;;10.06;63.09;97955.53;4970660;28;20471;-71
2023/03/23 02:59:00;;;;;;;19.00;12.10;;;;;;;10.07;62.95;97961.81;4973734;28;20371;-71
2023/03/23 03:01:25;;;;;;;18.92;11.80;;;;;;;10.06;63.48;97954.72;4975072;28;20468;-71
2023/03/23 03:03:52;;;;;;;20.10;12.48;;;;;;;10.06;63.37;97955.53;4974812;28;20531;-71
2023/03/23 03:06:32;;;;;;;20.65;11.88;;;;;;;10.05;63.91;97956.63;4975504;28;20491;-71
2023/03/23 03:09:19;;;;;;;;;;;;;;;10.05;63.40;97953.09;4975427;28;20518;-72
2023/03/23 03:11:50;;;;;;;17.20;11.27;;;;;;;10.05;63.16;97953.09;4975336;28;19914;-71
2023/03/23 03:14:31;;;;;;;19.08;11.77;;;;;;;10.04;63.47;97949.53;4985129;28;20061;-73
2023/03/23 03:16:59;;;;;;;17.88;11.00;;;;;;;10.06;63.98;97951.97;4975849;28;20110;-71
2023/03/23 03:19:28;;;;;;;17.10;11.20;;;;;;;10.05;63.72;97937.47;4975264;28;20558;-72
2023/03/23 03:21:57;;;;;;;;;;;;;;;10.06;63.88;97932.81;4975364;28;20035;-71
2023/03/23 03:24:25;;;;;;;17.58;11.05;;;;;;;10.07;63.47;97935.22;4974475;28;19922;-73
2023/03/23 03:26:53;;;;;;;17.75;11.13;;;;;;;10.06;63.87;97939.09;4975047;28;20150;-73
2023/03/23 03:29:26;;;;;;;21.92;13.48;;;;;;;10.06;63.32;97935.53;4974902;28;20034;-72
2023/03/23 03:31:55;;;;;;;23.13;13.88;;;;;;;10.05;63.34;97934.72;4974490;28;20022;-71
2023/03/23 03:34:23;;;;;;;19.13;11.80;;;;;;;10.05;63.73;97950.38;4971296;28;20030;-71
2023/03/23 03:36:50;;;;;;;14.38;9.77;;;;;;;10.03;63.87;97953.38;4973509;28;20105;-72
2023/03/23 03:39:17;;;;;;;13.23;9.63;;;;;;;10.01;64.23;97932.91;4974014;28;20165;-72
2023/03/23 03:41:43;;;;;;;15.13;9.45;;;;;;;10.01;63.06;97935.66;4974341;28;20042;-72
2023/03/23 03:44:09;;;;;;;14.70;9.65;;;;;;;9.98;64.07;97937.09;4973273;28;20399;-72
2023/03/23 03:46:35;;;;;;;14.43;10.18;;;;;;;9.96;63.72;97939.31;4973846;28;20031;-72
2023/03/23 03:49:02;;;;;;;20.98;13.35;;;;;;;9.94;63.93;97936.06;4973892;28;20096;-72
2023/03/23 03:51:30;;;;;;;15.20;10.07;;;;;;;9.91;63.95;97939.41;4973939;28;20039;-72
2023/03/23 03:53:56;;;;;;;12.80;9.30;;;;;;;9.90;63.53;97938.59;4974251;28;20054;-72
2023/03/23 03:56:22;;;;;;;12.02;9.02;;;;;;;9.90;63.15;97933.09;4973065;28;20566;-72
2023/03/23 03:58:49;;;;;;;14.00;8.90;;;;;;;9.92;63.54;97938.28;4971955;28;20034;-72
2023/03/23 04:01:15;;;;;;;12.73;8.90;;;;;;;9.90;63.94;97930.38;4971985;28;20704;-72
2023/03/23 04:03:41;;;;;;;13.65;9.05;;;;;;;9.90;63.83;97926.84;4988397;28;20030;-72
2023/03/23 04:06:08;;;;;;;13.82;9.02;;;;;;;9.88;63.66;97924.38;4971950;28;20049;-72
2023/03/23 04:08:37;;;;;;;11.82;9.00;;;;;;;9.88;63.49;97926.31;4972162;28;20019;-72
2023/03/23 04:11:04;;;;;;;13.20;8.95;;;;;;;9.86;63.83;97923.06;4972257;28;20034;-72
2023/03/23 04:13:29;;;;;;;13.52;9.48;;;;;;;9.83;63.50;97919.81;4973850;28;20395;-72
2023/03/23 04:15:55;;;;;;;16.63;10.90;;;;;;;9.82;63.77;97928.34;4973168;28;20034;-72
2023/03/23 04:18:21;;;;;;;16.77;11.02;;;;;;;9.76;63.99;97924.09;4973523;28;20038;-72
2023/03/23 04:20:48;;;;;;;15.70;10.73;;;;;;;9.71;63.62;97922.25;4973007;28;20038;-71
2023/03/23 04:23:22;;;;;;;14.73;9.65;;;;;;;9.68;63.55;97926.41;4973796;28;20040;-72
2023/03/23 04:25:52;;;;;;;14.88;10.13;;;;;;;9.66;63.53;97925.91;4971925;28;20031;-71
2023/03/23 04:28:18;;;;;;;13.45;9.60;;;;;;;9.63;63.96;97922.94;4974553;28;20080;-72
2023/03/23 04:30:48;;;;;;;14.30;9.27;;;;;;;9.59;63.98;97921.94;4993268;28;20034;-72
2023/03/23 04:33:14;;;;;;;13.60;9.23;;;;;;;9.56;63.87;97928.03;4981085;28;20034;-72
2023/03/23 04:35:45;;;;;;;15.48;9.57;;;;;;;9.52;63.84;97931.38;4973484;28;20026;-72
2023/03/23 04:38:12;;;;;;;19.80;9.85;;;;;;;9.49;63.58;97923.78;4973428;28;20476;-73
2023/03/23 04:40:42;;;;;;;15.15;9.20;;;;;;;9.47;63.62;97928.72;4973433;28;20523;-71
2023/03/23 04:43:08;;;;;;;13.27;9.07;;;;;;;9.45;64.50;97933.69;4973327;28;20035;-72
2023/03/23 04:45:37;;;;;;;15.63;9.95;;;;;;;9.43;64.05;97933.19;4973748;28;20034;-71
2023/03/23 04:48:04;;;;;;;13.10;9.43;;;;;;;9.39;64.63;97930.22;4988476;28;20085;-72
2023/03/23 04:50:32;;;;;;;14.77;9.30;;;;;;;9.36;64.34;97930.03;4973139;28;20027;-72
2023/03/23 04:53:03;;;;;;;14.07;8.95;;;;;;;9.36;64.21;97925.38;4973099;28;20069;-72
2023/03/23 04:55:30;;;;;;;16.23;8.73;;;;;;;9.35;64.15;97931.13;4972936;28;20035;-72
2023/03/23 04:57:56;;;;;;;17.73;9.95;;;;;;;9.35;64.76;97933.88;4973246;28;20063;-72
2023/03/23 05:00:21;;;;;;;13.48;8.90;;;;;;;9.36;64.20;97922.63;4972274;28;20379;-72
2023/03/23 05:02:51;;;;;;;14.73;9.60;;;;;;;9.40;64.90;97925.56;4971888;28;20074;-71
2023/03/23 05:05:18;;;;;;;17.95;9.65;;;;;;;9.42;64.57;97923.34;4972854;28;20109;-72
2023/03/23 05:07:43;;;;;;;15.55;9.40;;;;;;;9.47;64.14;97930.66;4972520;28;20054;-72
2023/03/23 05:10:11;;;;;;;14.20;9.35;;;;;;;9.50;64.50;97932.78;4972497;28;20467;-72
2023/03/23 05:12:37;;;;;;;13.65;9.15;;;;;;;9.52;64.76;97928.66;4987634;28;20038;-72
2023/03/23 05:15:03;;;;;;;14.38;10.32;;;;;;;9.56;64.12;97937.06;4972510;28;20045;-72
2023/03/23 05:17:30;;;;;;;16.27;9.52;;;;;;;9.62;64.20;97930.38;4972406;28;20038;-73
2023/03/23 05:19:56;;;;;;;13.63;9.77;;;;;;;9.66;64.23;97930.56;4972197;28;20723;-72
2023/03/23 05:22:23;;;;;;;15.65;9.65;;;;;;;9.68;64.56;97923.69;4972285;28;20057;-72
2023/03/23 05:24:51;;;;;;;16.15;9.45;;;;;;;9.72;64.19;97926.63;4972114;28;20045;-71
2023/03/23 05:27:18;;;;;;;16.42;10.68;;;;;;;9.75;64.44;97928.75;4972238;28;20043;-71
2023/03/23 05:29:45;;;;;;;16.52;10.48;;;;;;;9.78;64.03;97924.59;4970944;28;20049;-72
2023/03/23 05:32:11;;;;;;;13.25;8.82;;;;;;;9.80;64.20;97925.91;4973059;28;20033;-72
2023/03/23 05:34:36;;;;;;;15.40;10.80;;;;;;;9.85;64.11;97932.41;4972157;28;20286;-72
2023/03/23 05:37:03;;;;;;;15.32;10.95;;;;;;;9.86;64.52;97932.09;4971308;28;20033;-72
2023/03/23 05:39:30;;;;;;;12.18;9.35;;;;;;;9.87;63.67;97935.66;4970998;28;20031;-72
2023/03/23 05:41:56;;;;;;;15.55;10.75;;;;;;;9.89;63.88;97933.44;4973334;28;20025;-72
2023/03/23 05:44:22;;;;;;;15.75;9.50;;;;;;;9.91;64.18;97945.69;4971531;28;20018;-71
2023/03/23 05:46:48;;;;;;;11.27;8.05;;;;;;;9.95;64.38;97954.13;4971818;28;20034;-71
2023/03/23 05:49:18;;;;;;;14.45;8.80;;;;;;;10.00;64.01;97951.25;4969523;28;20420;-71
2023/03/23 05:51:49;;;;;;;15.88;8.80;;;;;;;10.04;63.99;97946.78;4972303;28;20031;-72
2023/03/23 05:54:16;;;;;;;16.17;9.57;;;;;;;10.10;63.56;97942.84;4972676;28;20038;-72
2023/03/23 05:56:42;;;;;;;13.10;8.27;;;;;;;10.13;64.06;97939.50;4972486;28;20035;-72
2023/03/23 05:59:08;;;;;;;15.13;8.60;;;;;;;10.21;63.72;97937.16;4971550;28;20035;-72
2023/03/23 06:01:33;;;;;;;17.63;10.55;;;;;;;10.25;64.20;97943.66;4971623;28;20045;-72
2023/03/23 06:03:59;;;;;;;15.05;10.73;;;;;;;10.28;63.95;97940.28;4971678;28;20038;-72
2023/03/23 06:06:26;;;;;;;14.80;9.70;;;;;;;10.32;63.67;97949.53;4979611;28;20474;-72
2023/03/23 06:08:51;;;;;;;12.70;8.88;;;;;;;10.35;63.42;97940.69;4977003;28;20031;-72
2023/03/23 06:11:18;;;;;;;14.23;10.32;;;;;;;10.39;63.45;97938.16;4984462;28;20044;-72
2023/03/23 06:13:44;;;;;;;11.15;8.55;;;;;;;10.43;63.50;97936.44;4983895;28;20054;-71
2023/03/23 06:16:10;;;;;;;16.77;11.68;;;;;;;10.45;63.16;97934.19;4971943;28;20035;-72
2023/03/23 06:18:36;;;;;;;18.52;14.55;;;;;;;10.49;63.78;97937.13;4971311;28;20033;-71
2023/03/23 06:21:04;;;;;;;16.88;11.43;;;;;;;10.54;63.58;97932.34;4971024;28;20030;-72
2023/03/23 06:23:30;;;;;;;18.83;12.40;;;;;;;10.60;63.62;97924.00;4971352;28;20495;-71
2023/03/23 06:25:59;;;;;;;23.98;13.88;;;;;;;10.64;63.22;97925.00;4970986;28;20058;-71
2023/03/23 06:28:25;;;;;;;21.33;15.53;;;;;;;10.67;62.97;97930.69;4969542;28;20470;-72
2023/03/23 06:30:50;;;;;;;20.30;14.35;;;;;;;10.70;63.67;97929.22;4970302;28;20313;-72
2023/03/23 06:33:17;;;;;;;23.92;11.80;;;;;;;10.75;63.45;97933.81;4971284;28;20077;-71
2023/03/23 06:35:43;;;;;;;18.33;12.50;;;;;;;10.82;63.81;97928.69;4972114;28;20555;-71
2023/03/23 06:38:09;;;;;;;19.55;13.25;;;;;;;10.86;62.96;97925.03;4971735;28;20031;-71
2023/03/23 06:40:35;;;;;;;21.00;14.23;;;;;;;10.91;63.31;97921.31;4974054;28;20031;-71
2023/03/23 06:43:01;;;;;;;20.58;12.38;;;;;;;10.97;63.06;97922.84;4971486;28;20042;-72
2023/03/23 06:45:26;;;;;;;22.20;13.20;;;;;;;11.06;63.37;97922.09;4970200;28;20030;-72
2023/03/23 06:47:52;;;;;;;21.55;14.02;;;;;;;11.15;62.97;97928.44;4970453;28;20118;-72
2023/03/23 06:50:17;;;;;;;23.27;14.50;;;;;;;11.22;63.00;97930.75;4970620;28;20097;-72
2023/03/23 06:52:47;;;;;;;25.17;15.50;;;;;;;11.27;62.81;97925.13;4968575;28;20145;-71
2023/03/23 06:55:13;;;;;;;22.00;14.05;;;;;;;11.31;62.60;97926.91;4969042;28;20519;-72
2023/03/23 06:57:39;;;;;;;25.38;14.88;;;;;;;11.36;62.76;97933.41;4968881;28;20502;-72
2023/03/23 07:00:07;;;;;;;23.13;11.90;;;;;;;11.39;62.33;97928.09;4968871;28;20042;-72
2023/03/23 07:02:33;;;;;;;20.35;11.75;;;;;;;11.44;62.07;97932.66;4969243;28;20046;-72
2023/03/23 07:04:58;;;;;;;20.52;12.30;;;;;;;11.50;62.67;97936.06;4969478;28;20027;-72
2023/03/23 07:07:23;;;;;;;19.15;12.07;;;;;;;11.56;61.65;97941.13;4969560;28;20034;-70
2023/03/23 07:09:50;;;;;;;23.48;12.82;;;;;;;11.60;62.26;97944.03;4969331;28;20034;-70
2023/03/23 07:12:16;;;;;;;21.13;11.38;;;;;;;11.64;61.67;97942.28;4969452;28;20030;-70
2023/03/23 07:14:41;;;;;;;21.98;13.25;;;;;;;11.70;61.11;97943.75;4969293;28;20022;-71
2023/03/23 07:17:07;;;;;;;20.80;12.00;;;;;;;11.76;61.76;97949.91;4968275;28;20447;-72
2023/03/23 07:19:33;;;;;;;19.45;10.95;;;;;;;11.81;61.65;97949.00;4969492;28;20030;-70
2023/03/23 07:21:58;;;;;;;21.02;12.05;;;;;;;11.86;61.64;97952.41;4969351;28;20395;-71
2023/03/23 07:24:26;;;;;;;23.05;12.32;;;;;;;11.95;61.28;97948.88;4969212;28;20130;-71
2023/03/23 07:26:51;;;;;;;22.50;12.35;;;;;;;11.99;60.96;97947.13;4967271;28;20551;-70
2023/03/23 07:29:17;;;;;;;22.02;14.75;;;;;;;12.10;61.37;97953.16;4968462;28;20018;-70
2023/03/23 07:31:42;;;;;;;23.63;13.60;;;;;;;12.18;61.45;97957.88;4968680;28;20065;-71
2023/03/23 07:34:08;;;;;;;26.13;15.30;;;;;;;12.27;60.79;97955.13;4969089;28;21681;-72
2023/03/23 07:36:37;;;;;;;21.00;12.77;;;;;;;12.33;60.58;97962.09;4969305;28;20483;-71
2023/03/23 07:39:05;;;;;;;17.17;10.40;;;;;;;12.37;60.35;97954.84;4968226;28;20031;-70
2023/03/23 07:41:31;;;;;;;20.40;10.13;;;;;;;12.44;60.45;97955.16;4969161;28;20035;-70
2023/03/23 07:43:57;;;;;;;18.45;10.80;;;;;;;12.50;60.73;97953.09;4970467;28;20251;-70
2023/03/23 07:46:23;;;;;;;19.38;9.40;;;;;;;12.56;60.23;97954.56;4974189;28;20052;-70
2023/03/23 07:48:51;;;;;;;17.27;9.13;;;;;;;12.63;60.53;97951.31;4971333;28;20107;-72
2023/03/23 07:51:17;;;;;;;13.43;7.55;;;;;;;12.69;59.33;97962.97;4973312;28;20078;-71
2023/03/23 07:53:44;;;;;;;13.32;8.25;;;;;;;12.71;59.37;97956.00;4973287;28;20411;-71
2023/03/23 07:56:12;;;;;;;14.75;7.82;;;;;;;12.76;58.65;97949.53;4972984;28;20045;-71
2023/03/23 07:58:37;;;;;;;11.63;7.03;;;;;;;12.83;58.73;97949.06;4972098;28;20097;-72
2023/03/23 08:01:03;;;;;;;12.52;7.85;;;;;;;12.89;58.76;97940.31;4972545;28;20645;-71
2023/03/23 08:03:28;;;;;;;12.13;7.32;;;;;;;12.97;58.25;97952.44;4972130;28;20042;-72
2023/03/23 08:05:58;;;;;;;11.65;7.95;;;;;;;13.03;58.16;97937.38;4973613;28;20368;-72
2023/03/23 08:08:24;;;;;;;10.70;7.22;;;;;;;13.08;57.54;97947.41;4970321;28;20121;-72
2023/03/23 08:10:50;;;;;;;11.95;7.15;;;;;;;13.17;57.66;97947.41;4971911;28;20073;-71
2023/03/23 08:13:16;;;;;;;15.75;8.50;;;;;;;13.24;57.38;97948.53;4972197;28;20134;-71
2023/03/23 08:15:41;;;;;;;11.52;7.18;;;;;;;13.37;57.43;97943.97;4972485;28;20383;-73
2023/03/23 08:18:07;;;;;;;10.05;7.35;;;;;;;13.49;57.38;97942.53;4973285;28;20515;-72
2023/03/23 08:20:33;;;;;;;17.33;8.73;;;;;;;13.58;57.37;97943.31;4972932;28;20030;-72
2023/03/23 08:22:59;;;;;;;10.70;6.70;;;;;;;13.67;57.51;97938.56;4973059;28;20057;-72
2023/03/23 08:25:25;;;;;;;10.60;6.65;;;;;;;13.76;57.27;97933.03;4986588;28;20041;-70
2023/03/23 08:27:52;;;;;;;13.23;6.40;;;;;;;13.88;57.36;97935.09;4975329;28;20060;-71
2023/03/23 08:30:22;;;;;;;9.32;7.28;;;;;;;13.95;56.39;97929.88;4972289;28;20495;-71
2023/03/23 08:32:47;;;;;;;10.45;6.63;;;;;;;14.04;56.24;97940.06;4972581;28;20165;-70
2023/03/23 08:35:15;;;;;;;9.55;5.80;;;;;;;14.10;56.21;97922.16;4972627;28;20121;-72
2023/03/23 08:37:41;;;;;;;10.30;6.00;;;;;;;14.19;56.19;97922.13;4972860;28;20015;-70
2023/03/23 08:40:11;;;;;;;10.30;6.13;;;;;;;14.26;54.99;97917.69;4972193;28;20031;-71
2023/03/23 08:42:40;;;;;;;9.38;6.78;;;;;;;14.35;55.44;97919.59;4972346;28;21497;-72
2023/03/23 08:45:07;;;;;;;;;;;;;;;14.45;54.73;97916.44;4973273;28;20059;-72
2023/03/23 08:47:36;;;;;;;11.60;6.13;;;;;;;14.52;54.50;97919.47;4986869;28;20474;-70
2023/03/23 08:50:04;;;;;;;7.93;4.88;;;;;;;14.63;54.88;97910.78;4970935;28;20035;-71
2023/03/23 08:52:30;;;;;;;7.60;5.00;;;;;;;14.77;54.65;97919.63;4971875;28;20058;-71
2023/03/23 08:54:56;;;;;;;9.30;4.97;;;;;;;14.93;53.73;97914.31;4971307;28;20471;-69
2023/03/23 08:57:22;;;;;;;7.50;5.10;;;;;;;15.08;53.03;97918.38;4972072;28;20041;-72
2023/03/23 08:59:48;;;;;;;8.93;4.72;;;;;;;15.23;53.04;97921.66;4971599;28;20033;-74
2023/03/23 09:02:13;;;;;;;6.85;4.60;;;;;;;15.32;52.09;97920.44;4971799;28;20018;-71
2023/03/23 09:04:42;;;;;;;9.45;3.92;;;;;;;15.41;51.41;97927.81;4971699;28;20041;-73
2023/03/23 09:07:12;;;;;;;8.95;5.07;;;;;;;15.46;50.52;97924.84;4971077;28;20442;-73
2023/03/23 09:09:41;;;;;;;8.85;4.55;;;;;;;15.45;50.73;97928.75;4971173;28;20161;-72
2023/03/23 09:12:08;;;;;;;8.15;4.50;;;;;;;15.43;51.60;97934.59;4972070;28;20518;-73
2023/03/23 09:14:34;;;;;;;7.93;3.88;;;;;;;15.43;51.72;97936.56;4971475;28;20031;-72
2023/03/23 09:17:00;;;;;;;7.05;4.18;;;;;;;15.41;50.24;97933.34;4972083;28;20069;-72
2023/03/23 09:19:26;;;;;;;8.98;3.95;;;;;;;15.39;50.51;97943.94;4972444;28;20033;-73
2023/03/23 09:21:51;;;;;;;6.70;3.83;;;;;;;15.36;50.05;97939.88;4976948;28;20023;-74
2023/03/23 09:24:16;;;;;;;10.45;4.78;;;;;;;15.35;50.98;97929.97;4972353;28;20039;-73
2023/03/23 09:26:42;;;;;;;8.00;4.25;;;;;;;15.40;50.25;97934.50;4971430;28;20043;-72
2023/03/23 09:29:08;;;;;;;8.25;4.35;;;;;;;15.47;50.03;97938.31;4969900;28;20046;-72
2023/03/23 09:31:36;;;;;;;6.85;4.00;;;;;;;15.55;49.46;97946.84;4970822;28;20019;-71
2023/03/23 09:34:04;;;;;;;9.07;4.63;;;;;;;15.68;49.43;97955.97;4971769;28;20035;-72
2023/03/23 09:36:31;;;;;;;8.18;4.30;;;;;;;15.86;50.06;97943.59;4971493;28;20034;-72
2023/03/23 09:38:56;;;;;;;10.52;4.30;;;;;;;16.09;49.00;97940.38;4973803;28;20471;-71
2023/03/23 09:41:44;;;;;;;7.57;4.13;;;;;;;16.27;49.71;97949.25;4971050;28;20027;-72
2023/03/23 09:44:31;;;;;;;7.82;3.90;;;;;;;16.42;48.66;97942.19;4970968;28;20046;-70
2023/03/23 09:47:23;;;;;;;7.72;4.32;;;;;;;16.57;48.19;97937.09;4971382;28;20042;-72
2023/03/23 09:49:57;;;;;;;8.98;4.03;;;;;;;16.69;47.21;97936.25;4969834;28;20030;-72
2023/03/23 09:52:37;;;;;;;10.43;4.38;;;;;;;16.73;47.12;97929.66;4971011;28;20031;-72
2023/03/23 09:55:03;;;;;;;8.98;4.10;;;;;;;16.78;45.33;97940.50;4970812;28;20038;-71
2023/03/23 09:57:37;;;;;;;9.00;4.03;;;;;;;16.75;45.71;97935.66;4970922;28;20029;-72
2023/03/23 10:00:09;;;;;;;10.63;4.47;;;;;;;16.70;45.27;97937.88;4970168;28;20073;-71
2023/03/23 10:03:14;;;;;;;10.10;3.67;;;;;;;16.65;44.98;97934.19;4970945;28;20030;-72
2023/03/23 10:05:45;;;;;;;9.43;4.13;;;;;;;16.67;44.38;97948.50;4969301;28;20463;-74
2023/03/23 10:08:23;;;;;;;7.28;3.72;;;;;;;16.70;44.51;97938.69;4969857;28;20125;-72
2023/03/23 10:11:07;;;;;;;11.23;3.92;;;;;;;16.78;45.42;97923.09;4971634;28;20030;-72
2023/03/23 10:14:08;;;;;;;9.25;4.30;;;;;;;16.94;45.25;97923.94;4971607;28;20035;-72
2023/03/23 10:16:39;;;;;;;7.72;3.70;;;;;;;17.10;45.01;97915.75;4956875;28;20038;-73
2023/03/23 10:19:27;;;;;;;7.55;3.90;;;;;;;17.21;44.90;97932.66;4973168;28;20097;-72
2023/03/23 10:21:59;;;;;;;10.50;4.55;;;;;;;17.19;44.39;97926.66;4969895;28;20030;-72
2023/03/23 10:24:36;;;;;;;6.85;3.80;;;;;;;17.16;43.57;97918.22;4970390;28;20420;-72
2023/03/23 10:27:04;;;;;;;8.00;3.92;;;;;;;17.13;44.07;97917.00;4966052;28;20182;-73
2023/03/23 10:29:39;;;;;;;7.10;4.03;;;;;;;17.10;43.96;97912.97;4977699;28;20062;-73
2023/03/23 10:32:11;;;;;;;5.95;3.50;;;;;;;17.10;44.43;97910.19;4968362;28;20041;-72
2023/03/23 10:34:45;;;;;;;7.07;3.88;;;;;;;17.11;43.93;97922.06;4970465;28;20281;-71
2023/03/23 10:37:19;;;;;;;6.88;3.88;;;;;;;17.04;43.67;97917.16;4966542;28;20031;-71
2023/03/23 10:39:58;;;;;;;6.60;3.58;;;;;;;16.98;44.84;97923.28;4970809;28;20424;-73
2023/03/23 10:42:26;;;;;;;8.30;3.33;;;;;;;16.93;44.81;97927.06;4967319;28;20039;-74
2023/03/23 10:44:52;;;;;;;6.57;3.80;;;;;;;16.90;44.16;97934.13;4969252;28;20826;-72
2023/03/23 10:47:18;;;;;;;6.38;3.80;;;;;;;16.81;44.55;97925.16;4971731;28;20062;-72
2023/03/23 10:49:54;;;;;;;8.88;3.72;;;;;;;16.73;43.68;97928.88;4970364;28;20065;-72
2023/03/23 10:52:26;;;;;;;6.68;4.18;;;;;;;16.65;44.67;97925.88;4970083;28;20475;-72
2023/03/23 10:55:06;;;;;;;5.32;3.40;;;;;;;16.59;44.63;97927.28;4971184;28;20023;-72
2023/03/23 10:57:34;;;;;;;6.15;3.20;;;;;;;16.52;44.65;97925.13;4971734;28;20034;-71
2023/03/23 11:00:07;;;;;;;6.68;3.58;;;;;;;16.50;44.52;97929.41;4971265;28;20521;-72
2023/03/23 11:02:38;;;;;;;6.80;3.55;;;;;;;16.44;45.37;97933.56;4971030;28;20026;-72
2023/03/23 11:05:13;;;;;;;6.75;3.60;;;;;;;16.45;45.40;97941.50;4971941;28;20045;-70
2023/03/23 11:07:39;;;;;;;5.97;3.40;;;;;;;16.49;45.16;97930.56;4986198;28;20034;-72
2023/03/23 11:10:21;;;;;;;6.75;4.22;;;;;;;16.50;45.30;97927.41;4990680;28;20050;-72
2023/03/23 11:12:47;;;;;;;6.35;4.88;;;;;;;16.51;44.66;97917.97;4991249;28;20077;-72
2023/03/23 11:15:37;;;;;;;6.28;4.25;;;;;;;16.51;45.16;97920.72;4991205;28;20023;-73
2023/03/23 11:18:19;;;;;;;6.32;4.32;;;;;;;16.52;44.81;97932.59;4991233;28;20034;-72
2023/03/23 11:20:48;;;;;;;5.68;3.72;;;;;;;16.50;45.19;97923.88;4994409;28;20379;-73
2023/03/23 11:23:36;;;;;;;7.10;4.22;;;;;;;16.47;45.21;97927.31;4995212;28;20057;-72
2023/03/23 11:26:26;;;;;;;6.95;3.85;;;;;;;16.48;45.21;97923.41;4995129;28;20100;-72
2023/03/23 11:29:05;;;;;;;8.20;4.65;;;;;;;16.48;44.90;97915.88;4995033;28;20105;-70
2023/03/23 11:31:36;;;;;;;6.28;3.60;;;;;;;16.50;45.52;97912.78;4977805;28;20479;-70
2023/03/23 11:34:13;;;;;;;6.38;3.70;;;;;;;16.54;45.12;97915.66;4975206;28;20535;-72
2023/03/23 11:36:42;;;;;;;6.05;3.60;;;;;;;16.52;44.84;97908.50;4975806;28;20097;-71